TimeHST,TemperatureF,Dew PointF,Humidity,Sea Level PressureIn,VisibilityMPH,Wind Direction,Wind SpeedMPH,Gust SpeedMPH,PrecipitationIn,Events,Conditions,WindDirDegrees,DateUTC
12:53 AM,72.0,64.0,76,30.11,10.0,ENE,10.4,-,N/A,,Scattered Clouds,60,2012-01-10 10:53:00
1:53 AM,72.0,64.0,76,30.10,10.0,ENE,10.4,-,N/A,,Mostly Cloudy,70,2012-01-10 11:53:00
2:22 AM,71.6,64.4,78,30.09,10.0,ENE,9.2,-,N/A,,Partly Cloudy,70,2012-01-10 12:22:00
2:53 AM,72.0,64.0,76,30.07,10.0,ENE,8.1,-,N/A,,Partly Cloudy,60,2012-01-10 12:53:00
3:16 AM,71.6,64.4,78,30.08,10.0,ENE,10.4,-,N/A,,Mostly Cloudy,60,2012-01-10 13:16:00
3:27 AM,71.6,64.4,78,30.08,10.0,ENE,10.4,-,N/A,,Scattered Clouds,60,2012-01-10 13:27:00
3:53 AM,72.0,64.9,78,30.06,10.0,ENE,11.5,-,N/A,,Scattered Clouds,60,2012-01-10 13:53:00
4:08 AM,71.6,64.4,78,30.07,10.0,ENE,11.5,-,N/A,,Mostly Cloudy,70,2012-01-10 14:08:00
4:18 AM,71.6,64.4,78,30.07,10.0,ENE,10.4,-,N/A,,Scattered Clouds,70,2012-01-10 14:18:00
4:53 AM,72.0,64.9,78,30.06,10.0,ENE,10.4,-,N/A,,Scattered Clouds,70,2012-01-10 14:53:00
5:20 AM,71.6,66.2,83,30.06,9.0,ENE,10.4,-,0.00,Rain,Light Rain,70,2012-01-10 15:20:00
5:32 AM,71.6,64.4,78,30.06,10.0,ENE,16.1,-,0.00,,Overcast,70,2012-01-10 15:32:00
5:53 AM,72.0,64.9,78,30.06,10.0,ENE,15.0,-,0.00,,Mostly Cloudy,70,2012-01-10 15:53:00
6:53 AM,72.0,64.0,76,30.08,10.0,East,15.0,-,N/A,,Mostly Cloudy,80,2012-01-10 16:53:00
7:53 AM,73.0,64.0,73,30.09,10.0,East,13.8,-,0.01,,Partly Cloudy,80,2012-01-10 17:53:00
8:53 AM,75.0,63.0,66,30.11,10.0,ENE,13.8,-,N/A,,Partly Cloudy,70,2012-01-10 18:53:00
9:53 AM,77.0,64.0,64,30.12,10.0,ENE,13.8,-,N/A,,Partly Cloudy,70,2012-01-10 19:53:00
10:53 AM,77.0,62.1,60,30.11,10.0,East,11.5,-,N/A,,Partly Cloudy,80,2012-01-10 20:53:00
11:53 AM,79.0,63.0,58,30.08,10.0,East,10.4,-,N/A,,Clear,80,2012-01-10 21:53:00
12:53 PM,78.1,64.0,62,30.06,10.0,ENE,9.2,-,N/A,,Partly Cloudy,60,2012-01-10 22:53:00
1:53 PM,78.1,64.0,62,30.04,10.0,ENE,9.2,-,N/A,,Scattered Clouds,70,2012-01-10 23:53:00
2:53 PM,75.9,64.0,67,30.03,10.0,East,6.9,-,0.01,,Partly Cloudy,90,2012-01-11 00:53:00
3:53 PM,77.0,64.0,64,30.03,10.0,ENE,6.9,-,N/A,,Clear,70,2012-01-11 01:53:00
4:53 PM,75.9,64.0,67,30.04,10.0,ENE,8.1,-,N/A,,Scattered Clouds,70,2012-01-11 02:53:00
5:53 PM,73.9,64.9,73,30.05,10.0,ENE,8.1,-,N/A,,Partly Cloudy,60,2012-01-11 03:53:00
6:53 PM,73.0,64.0,73,30.06,10.0,ENE,6.9,-,0.02,,Partly Cloudy,60,2012-01-11 04:53:00
7:53 PM,73.0,64.9,76,30.08,10.0,NE,9.2,-,N/A,,Partly Cloudy,50,2012-01-11 05:53:00
8:53 PM,73.0,66.0,79,30.09,10.0,ENE,9.2,-,N/A,,Scattered Clouds,60,2012-01-11 06:53:00
9:53 PM,73.0,64.9,76,30.09,10.0,ENE,11.5,-,N/A,,Overcast,60,2012-01-11 07:53:00
10:53 PM,72.0,66.0,81,30.09,10.0,ENE,10.4,-,N/A,,Scattered Clouds,60,2012-01-11 08:53:00
11:53 PM,72.0,64.9,78,30.07,10.0,ENE,9.2,-,N/A,,Partly Cloudy,70,2012-01-11 09:53:00